Time;durP1;ratioP1;P1;durP2;ratioP2;P2;SDS_P1;SDS_P2;PMS_P1;PMS_P2;Temp;Humidity;BMP_temperature;BMP_pressure;BME280_temperature;BME280_humidity;BME280_pressure;Samples;Min_cycle;Max_cycle;Signal;HPM_P1;HPM_P2
2023/07/12 00:01:09;;;;;;;2.77;2.40;;;24.20;68.00;;;;;;873187;163;27430;-73
2023/07/12 00:03:36;;;;;;;2.70;2.50;;;24.10;68.30;;;;;;872991;161;27402;-73
2023/07/12 00:06:02;;;;;;;2.90;2.58;;;24.10;68.60;;;;;;873243;161;27497;-73
2023/07/12 00:08:29;;;;;;;4.37;2.60;;;24.00;68.70;;;;;;873940;161;27448;-73
2023/07/12 00:10:55;;;;;;;3.50;3.10;;;24.00;69.20;;;;;;873660;161;27520;-73
2023/07/12 00:13:23;;;;;;;3.20;2.90;;;24.00;69.40;;;;;;872984;161;27428;-73
2023/07/12 00:15:49;;;;;;;3.25;2.60;;;24.00;70.00;;;;;;873580;163;27526;-73
2023/07/12 00:18:15;;;;;;;3.35;2.47;;;23.90;69.80;;;;;;872428;161;27404;-73
2023/07/12 00:20:42;;;;;;;2.90;2.70;;;23.90;69.90;;;;;;873112;162;27448;-73
2023/07/12 00:23:08;;;;;;;2.85;2.65;;;23.80;70.40;;;;;;872635;163;27419;-73
2023/07/12 00:25:35;;;;;;;2.80;2.50;;;23.80;70.70;;;;;;872460;161;27394;-73
2023/07/12 00:28:02;;;;;;;3.02;2.83;;;23.80;70.90;;;;;;872535;161;27525;-73
2023/07/12 00:30:31;;;;;;;2.85;2.65;;;23.80;71.20;;;;;;873606;162;27452;-73
2023/07/12 00:33:02;;;;;;;2.75;2.55;;;23.70;71.40;;;;;;873372;162;27447;-73
2023/07/12 00:35:24;;;;;;;3.12;2.60;;;23.70;71.80;;;;;;873244;162;27780;-73
2023/07/12 00:37:52;;;;;;;2.77;2.58;;;23.70;72.10;;;;;;873392;161;27805;-73
2023/07/12 00:40:38;;;;;;;3.62;2.70;;;23.60;72.40;;;;;;873333;163;27945;-73
2023/07/12 00:43:29;;;;;;;2.77;2.58;;;23.60;72.70;;;;;;872957;163;27542;-73
2023/07/12 00:45:56;;;;;;;2.83;2.52;;;23.60;72.60;;;;;;873989;161;27392;-73
2023/07/12 00:48:22;;;;;;;2.87;2.50;;;23.60;73.00;;;;;;873187;161;27528;-72
2023/07/12 00:50:49;;;;;;;3.00;2.70;;;23.50;73.30;;;;;;873579;161;27427;-73
2023/07/12 00:53:15;;;;;;;3.70;2.33;;;23.50;74.00;;;;;;873823;161;27525;-72
2023/07/12 00:56:03;;;;;;;3.15;2.47;;;23.50;74.30;;;;;;872960;162;27478;-72
2023/07/12 00:58:33;;;;;;;2.80;2.60;;;23.50;74.60;;;;;;873263;161;27373;-73
2023/07/12 01:01:00;;;;;;;2.50;2.30;;;23.50;74.70;;;;;;872071;162;27442;-72
2023/07/12 01:03:26;;;;;;;1.92;1.82;;;23.40;75.10;;;;;;873292;162;27392;-72
2023/07/12 01:05:53;;;;;;;2.90;2.47;;;23.40;75.70;;;;;;873118;162;27546;-72
2023/07/12 01:08:19;;;;;;;2.47;2.27;;;23.40;76.10;;;;;;873453;161;27462;-72
2023/07/12 01:10:46;;;;;;;4.25;2.67;;;23.40;76.40;;;;;;873147;161;27424;-72
2023/07/12 01:13:12;;;;;;;2.62;2.25;;;23.40;76.90;;;;;;873203;161;27369;-72
2023/07/12 01:15:39;;;;;;;3.00;2.60;;;23.30;77.30;;;;;;872706;161;27447;-72
2023/07/12 01:18:05;;;;;;;3.65;2.58;;;23.30;77.60;;;;;;873164;161;27533;-73
2023/07/12 01:20:35;;;;;;;2.75;2.52;;;23.30;78.00;;;;;;873128;163;27411;-72
2023/07/12 01:23:02;;;;;;;2.80;2.50;;;23.30;78.30;;;;;;872817;161;27393;-72
2023/07/12 01:25:37;;;;;;;2.05;1.92;;;23.30;78.50;;;;;;873199;162;27435;-72
2023/07/12 01:28:03;;;;;;;2.50;2.30;;;23.20;78.80;;;;;;872515;161;27459;-72
2023/07/12 01:30:30;;;;;;;2.30;2.10;;;23.20;79.00;;;;;;873268;161;27341;-72
2023/07/12 01:32:57;;;;;;;5.58;2.20;;;23.20;79.40;;;;;;872658;161;27509;-72
2023/07/12 01:35:23;;;;;;;5.12;3.33;;;23.20;79.70;;;;;;873625;163;27603;-72
2023/07/12 01:37:50;;;;;;;2.47;2.27;;;23.20;80.00;;;;;;873775;161;28020;-72
2023/07/12 01:40:16;;;;;;;2.58;2.20;;;23.10;80.20;;;;;;872838;161;27501;-72
2023/07/12 01:42:43;;;;;;;2.33;2.08;;;23.10;80.50;;;;;;872956;161;27420;-72
2023/07/12 01:45:10;;;;;;;2.35;2.15;;;23.10;80.90;;;;;;873102;161;27420;-72
2023/07/12 01:47:36;;;;;;;2.37;2.10;;;23.10;81.50;;;;;;873559;161;27463;-72
2023/07/12 01:50:03;;;;;;;2.65;2.37;;;23.10;81.60;;;;;;873733;161;27853;-73
2023/07/12 01:52:29;;;;;;;2.72;2.10;;;23.10;82.00;;;;;;873481;161;27415;-73
2023/07/12 01:54:57;;;;;;;2.30;2.10;;;23.10;82.20;;;;;;873400;161;27473;-72
2023/07/12 01:57:23;;;;;;;2.77;2.58;;;23.10;82.50;;;;;;873030;163;27455;-72
2023/07/12 01:59:49;;;;;;;3.12;2.10;;;23.10;82.70;;;;;;873478;162;27550;-72
2023/07/12 02:02:16;;;;;;;3.60;2.55;;;23.00;83.00;;;;;;872909;163;27513;-73
2023/07/12 02:04:42;;;;;;;2.33;2.05;;;23.00;83.30;;;;;;873374;162;27437;-72
2023/07/12 02:07:09;;;;;;;2.02;1.92;;;23.00;83.80;;;;;;873520;163;27446;-72
2023/07/12 02:09:35;;;;;;;3.65;2.12;;;23.00;84.10;;;;;;873661;162;27430;-72
2023/07/12 02:12:02;;;;;;;3.98;2.47;;;23.00;84.30;;;;;;873256;162;27513;-72
2023/07/12 02:14:29;;;;;;;2.85;2.52;;;22.90;84.70;;;;;;872950;161;27435;-72
2023/07/12 02:16:55;;;;;;;2.10;2.00;;;22.90;84.90;;;;;;873542;161;27501;-72
2023/07/12 02:19:22;;;;;;;3.20;2.35;;;22.90;85.70;;;;;;873491;159;27460;-72
2023/07/12 02:21:48;;;;;;;2.33;1.98;;;22.90;86.00;;;;;;873287;161;27548;-72
2023/07/12 02:24:15;;;;;;;4.25;2.08;;;22.90;86.50;;;;;;873470;163;27415;-72
2023/07/12 02:26:42;;;;;;;4.03;2.35;;;22.80;86.70;;;;;;873307;162;27412;-72
2023/07/12 02:29:08;;;;;;;3.00;2.10;;;22.80;87.10;;;;;;873369;161;27442;-73
2023/07/12 02:31:35;;;;;;;3.80;2.58;;;22.80;87.60;;;;;;873334;163;27456;-72
2023/07/12 02:34:01;;;;;;;3.08;2.00;;;22.80;88.10;;;;;;873228;163;27488;-72
2023/07/12 02:36:28;;;;;;;2.58;2.37;;;22.70;88.60;;;;;;872824;161;27435;-72
2023/07/12 02:38:55;;;;;;;2.83;2.35;;;22.70;90.00;;;;;;873326;161;27426;-79
2023/07/12 02:41:21;;;;;;;2.33;2.12;;;22.70;89.70;;;;;;873467;161;27525;-79
2023/07/12 02:43:48;;;;;;;2.45;2.27;;;22.70;90.00;;;;;;873505;163;27557;-79
2023/07/12 02:46:14;;;;;;;2.30;2.20;;;22.70;90.60;;;;;;873774;161;27505;-78
2023/07/12 02:48:41;;;;;;;3.87;2.30;;;22.70;90.70;;;;;;873858;161;27373;-79
2023/07/12 02:51:08;;;;;;;3.27;2.50;;;22.70;90.90;;;;;;873604;161;27526;-79
2023/07/12 02:53:34;;;;;;;2.80;2.42;;;22.70;91.00;;;;;;873556;161;27585;-79
2023/07/12 02:56:01;;;;;;;3.05;2.20;;;22.70;91.00;;;;;;872882;161;27411;-79
2023/07/12 02:58:27;;;;;;;2.72;2.33;;;22.70;91.30;;;;;;872272;161;27478;-79
2023/07/12 03:00:57;;;;;;;2.60;2.20;;;22.70;91.20;;;;;;872738;163;27436;-79
2023/07/12 03:03:23;;;;;;;3.25;2.40;;;22.70;91.30;;;;;;872517;163;27887;-79
2023/07/12 03:05:50;;;;;;;4.85;2.90;;;22.70;91.50;;;;;;870196;161;27415;-79
2023/07/12 03:08:16;;;;;;;2.58;2.37;;;22.60;91.70;;;;;;872362;162;27420;-79
2023/07/12 03:10:43;;;;;;;2.62;2.40;;;22.60;91.80;;;;;;872240;163;27426;-79
2023/07/12 03:13:10;;;;;;;3.37;2.50;;;22.60;92.00;;;;;;871921;161;27451;-79
2023/07/12 03:15:39;;;;;;;2.58;2.22;;;22.60;92.30;;;;;;870098;162;27482;-79
2023/07/12 03:18:05;;;;;;;3.05;2.50;;;22.50;92.60;;;;;;872242;161;27574;-79
2023/07/12 03:20:35;;;;;;;2.90;2.52;;;22.50;92.70;;;;;;872401;163;27416;-79
2023/07/12 03:23:01;;;;;;;2.65;2.45;;;22.50;93.00;;;;;;871693;162;27551;-79
2023/07/12 03:25:28;;;;;;;5.33;2.70;;;22.50;93.20;;;;;;871994;162;27516;-79
2023/07/12 03:27:55;;;;;;;4.92;2.85;;;22.50;93.30;;;;;;869886;162;27426;-79
2023/07/12 03:30:21;;;;;;;2.98;2.60;;;22.50;93.50;;;;;;869560;160;27548;-79
2023/07/12 03:32:48;;;;;;;2.90;2.52;;;22.50;93.70;;;;;;871619;162;27448;-78
2023/07/12 03:35:14;;;;;;;3.90;2.77;;;22.40;93.80;;;;;;872454;163;27495;-79
2023/07/12 03:37:41;;;;;;;4.10;2.65;;;22.40;94.00;;;;;;871657;161;27369;-78
2023/07/12 03:40:08;;;;;;;2.92;2.72;;;22.40;94.10;;;;;;872235;161;27399;-79
2023/07/12 03:42:34;;;;;;;2.50;2.30;;;22.30;94.30;;;;;;871814;163;27432;-79
2023/07/12 03:45:01;;;;;;;2.52;2.15;;;22.30;94.60;;;;;;871722;161;27529;-79
2023/07/12 03:47:27;;;;;;;2.90;2.40;;;22.40;94.80;;;;;;871792;161;27474;-79
2023/07/12 03:49:55;;;;;;;2.58;2.37;;;22.30;95.00;;;;;;870820;162;27412;-79
2023/07/12 03:52:21;;;;;;;3.95;2.72;;;22.30;95.30;;;;;;870879;162;27528;-79
2023/07/12 03:54:47;;;;;;;2.85;2.47;;;22.30;95.50;;;;;;872533;161;27463;-79
2023/07/12 03:57:14;;;;;;;2.37;2.27;;;22.30;95.60;;;;;;873103;163;27494;-79
2023/07/12 03:59:40;;;;;;;5.35;2.87;;;22.30;95.80;;;;;;873570;160;27427;-79
2023/07/12 04:02:07;;;;;;;3.10;2.80;;;22.30;95.90;;;;;;874307;161;27501;-79
2023/07/12 04:04:33;;;;;;;3.17;2.87;;;22.40;96.00;;;;;;874811;163;27426;-79
2023/07/12 04:07:00;;;;;;;2.90;2.70;;;22.40;96.00;;;;;;874131;160;27956;-79
2023/07/12 04:09:27;;;;;;;2.80;2.55;;;22.40;96.10;;;;;;873701;160;27438;-79
2023/07/12 04:11:53;;;;;;;2.90;2.67;;;22.40;96.00;;;;;;874086;163;27388;-79
2023/07/12 04:14:20;;;;;;;2.50;2.30;;;22.50;96.10;;;;;;874409;163;27427;-79
2023/07/12 04:16:47;;;;;;;2.70;2.47;;;22.50;96.20;;;;;;874030;163;27526;-79
2023/07/12 04:19:13;;;;;;;3.00;2.70;;;22.50;96.20;;;;;;874135;161;27567;-79
2023/07/12 04:21:40;;;;;;;4.05;3.65;;;22.60;96.30;;;;;;874245;162;27392;-79
2023/07/12 04:24:06;;;;;;;3.10;2.62;;;22.60;96.50;;;;;;874250;161;27372;-79
2023/07/12 04:26:33;;;;;;;4.05;2.60;;;22.60;96.70;;;;;;874564;160;27537;-79
2023/07/12 04:28:59;;;;;;;5.55;3.33;;;22.70;96.90;;;;;;874564;160;27557;-79
2023/07/12 04:31:26;;;;;;;3.90;2.45;;;22.70;97.00;;;;;;874610;161;27511;-78
2023/07/12 04:33:53;;;;;;;2.90;2.70;;;22.70;97.00;;;;;;874128;163;27469;-79
2023/07/12 04:36:19;;;;;;;5.42;2.42;;;22.80;97.00;;;;;;873456;160;27484;-78
2023/07/12 04:38:46;;;;;;;7.92;3.45;;;22.90;97.00;;;;;;874546;161;27548;-79
2023/07/12 04:41:12;;;;;;;3.45;2.90;;;22.90;97.00;;;;;;874106;161;27868;-79
2023/07/12 04:43:39;;;;;;;3.22;2.40;;;23.00;96.90;;;;;;874536;163;27401;-78
2023/07/12 04:46:06;;;;;;;2.90;2.47;;;23.10;96.90;;;;;;874483;160;27431;-79
2023/07/12 04:48:33;;;;;;;5.58;3.45;;;23.10;96.80;;;;;;874387;160;27568;-79
2023/07/12 04:50:59;;;;;;;3.67;2.65;;;23.20;96.70;;;;;;874438;160;27443;-79
2023/07/12 04:53:25;;;;;;;2.60;2.40;;;23.20;96.60;;;;;;873888;163;27550;-79
2023/07/12 04:55:52;;;;;;;5.33;2.62;;;23.30;96.60;;;;;;874064;160;27447;-79
2023/07/12 04:58:18;;;;;;;3.17;2.40;;;23.40;96.70;;;;;;873120;161;27548;-79
2023/07/12 05:00:45;;;;;;;3.72;2.72;;;23.40;96.70;;;;;;869849;162;27463;-79
2023/07/12 05:03:12;;;;;;;3.55;3.22;;;23.50;96.80;;;;;;872363;163;27431;-79
2023/07/12 05:05:39;;;;;;;3.92;2.87;;;23.60;96.70;;;;;;872114;164;27549;-79
2023/07/12 05:08:05;;;;;;;3.05;2.70;;;23.60;96.60;;;;;;871907;161;27458;-79
2023/07/12 05:10:31;;;;;;;3.55;2.37;;;23.70;96.50;;;;;;872118;161;27413;-79
2023/07/12 05:12:58;;;;;;;3.00;2.67;;;23.80;96.50;;;;;;871079;163;27471;-79
2023/07/12 05:15:25;;;;;;;2.72;2.50;;;23.90;96.50;;;;;;870980;164;27515;-79
2023/07/12 05:17:51;;;;;;;5.87;2.83;;;23.90;96.80;;;;;;871340;164;27943;-79
2023/07/12 05:20:18;;;;;;;3.37;3.08;;;24.00;96.70;;;;;;871161;162;27498;-79
2023/07/12 05:22:47;;;;;;;3.98;2.85;;;24.10;96.40;;;;;;870873;162;27527;-79
2023/07/12 05:25:11;;;;;;;2.87;2.62;;;24.30;96.20;;;;;;872110;161;27527;-79
2023/07/12 05:27:39;;;;;;;3.27;2.85;;;24.30;96.00;;;;;;872095;161;27495;-79
2023/07/12 05:30:04;;;;;;;3.08;2.67;;;24.40;96.00;;;;;;872046;162;27374;-79
2023/07/12 05:32:31;;;;;;;5.22;2.85;;;24.60;96.00;;;;;;872125;161;27431;-79
2023/07/12 05:34:57;;;;;;;4.83;2.80;;;24.70;96.10;;;;;;871806;161;28616;-79
2023/07/12 05:37:24;;;;;;;2.65;2.45;;;24.80;96.20;;;;;;871687;162;27448;-79
2023/07/12 05:39:50;;;;;;;4.42;2.33;;;24.90;96.00;;;;;;872695;161;27366;-79
2023/07/12 05:42:17;;;;;;;3.75;2.50;;;25.10;95.40;;;;;;872323;162;27440;-79
2023/07/12 05:44:44;;;;;;;2.42;2.20;;;25.20;94.60;;;;;;872378;161;27441;-79
2023/07/12 05:47:10;;;;;;;3.15;2.45;;;25.40;94.00;;;;;;872112;161;27432;-79
2023/07/12 05:49:37;;;;;;;2.75;2.45;;;25.40;93.40;;;;;;872005;161;27496;-79
2023/07/12 05:52:03;;;;;;;3.45;3.08;;;25.50;93.10;;;;;;872585;161;27601;-79
2023/07/12 05:54:30;;;;;;;3.42;2.70;;;25.60;92.90;;;;;;871760;161;27482;-79
2023/07/12 05:56:57;;;;;;;4.03;3.12;;;25.60;93.00;;;;;;871976;161;27476;-79
2023/07/12 05:59:23;;;;;;;4.33;2.27;;;25.70;93.10;;;;;;873280;161;27459;-79
2023/07/12 06:01:50;;;;;;;3.27;2.70;;;25.70;92.90;;;;;;874831;162;27518;-79
2023/07/12 06:04:16;;;;;;;6.35;2.77;;;25.80;92.60;;;;;;874517;162;27342;-79
2023/07/12 06:06:43;;;;;;;3.58;2.58;;;25.90;92.10;;;;;;874648;163;27575;-78
2023/07/12 06:09:10;;;;;;;3.58;2.72;;;26.00;91.70;;;;;;874256;160;27534;-79
2023/07/12 06:11:36;;;;;;;3.62;2.90;;;26.00;91.30;;;;;;874452;161;27432;-79
2023/07/12 06:14:03;;;;;;;3.60;3.30;;;26.00;90.70;;;;;;874098;163;27346;-78
2023/07/12 06:16:29;;;;;;;3.77;2.80;;;26.00;90.90;;;;;;874024;163;27527;-78
2023/07/12 06:18:56;;;;;;;3.05;2.75;;;26.00;90.80;;;;;;873710;160;27532;-78
2023/07/12 06:21:22;;;;;;;3.10;2.83;;;26.00;91.00;;;;;;874009;163;27448;-78
2023/07/12 06:23:49;;;;;;;4.08;2.87;;;26.10;90.90;;;;;;874336;161;27381;-78
2023/07/12 06:26:16;;;;;;;5.05;2.77;;;26.10;90.80;;;;;;874591;163;27401;-78
2023/07/12 06:28:42;;;;;;;3.08;2.80;;;26.10;90.60;;;;;;874137;160;27455;-78
2023/07/12 06:31:09;;;;;;;5.37;2.87;;;26.20;90.90;;;;;;874282;161;27445;-78
2023/07/12 06:33:38;;;;;;;5.47;2.98;;;26.20;90.90;;;;;;873508;161;27447;-78
2023/07/12 06:36:02;;;;;;;3.00;2.75;;;26.20;91.30;;;;;;874400;160;27456;-74
2023/07/12 06:38:29;;;;;;;9.40;2.75;;;26.30;91.20;;;;;;874073;160;27422;-74
2023/07/12 06:40:55;;;;;;;4.08;3.40;;;26.40;91.50;;;;;;874786;163;27463;-74
2023/07/12 06:43:23;;;;;;;4.40;3.25;;;26.40;91.50;;;;;;874439;163;27534;-74
2023/07/12 06:45:48;;;;;;;3.85;2.62;;;26.50;91.30;;;;;;873431;161;27421;-74
2023/07/12 06:48:15;;;;;;;3.35;3.00;;;26.60;90.90;;;;;;874201;160;27527;-74
2023/07/12 06:50:42;;;;;;;3.55;3.15;;;26.90;92.60;;;;;;874183;160;27467;-74
2023/07/12 06:53:08;;;;;;;2.98;2.58;;;27.20;94.90;;;;;;874336;163;27489;-74
2023/07/12 06:55:35;;;;;;;3.05;2.70;;;27.80;96.30;;;;;;874578;163;27506;-74
2023/07/12 06:58:01;;;;;;;3.47;2.52;;;28.60;96.50;;;;;;873227;160;27513;-74
2023/07/12 07:00:28;;;;;;;5.00;2.60;;;29.60;95.30;;;;;;874164;161;27576;-74
2023/07/12 07:02:55;;;;;;;2.67;2.30;;;30.70;93.00;;;;;;874537;159;27462;-75
2023/07/12 07:05:21;;;;;;;2.70;2.12;;;31.80;90.00;;;;;;874160;160;26342;-75
2023/07/12 07:07:48;;;;;;;4.00;2.22;;;32.90;84.90;;;;;;874523;160;26325;-74
2023/07/12 07:10:14;;;;;;;2.12;1.92;;;34.10;79.90;;;;;;874044;160;26419;-75
2023/07/12 07:12:41;;;;;;;2.98;2.30;;;35.20;75.20;;;;;;874838;162;26350;-74
2023/07/12 07:15:08;;;;;;;2.30;2.10;;;36.20;71.70;;;;;;874335;160;26444;-75
2023/07/12 07:17:34;;;;;;;2.15;1.85;;;37.10;66.90;;;;;;874659;161;26432;-75
2023/07/12 07:20:01;;;;;;;2.22;1.90;;;37.90;61.40;;;;;;874284;160;26282;-74
2023/07/12 07:22:28;;;;;;;3.92;1.90;;;38.40;58.00;;;;;;874339;162;26334;-75
2023/07/12 07:24:54;;;;;;;2.45;1.52;;;38.70;56.70;;;;;;874075;160;27460;-75
2023/07/12 07:27:22;;;;;;;2.10;1.70;;;39.00;55.90;;;;;;873294;160;26354;-75
2023/07/12 07:29:47;;;;;;;2.33;1.57;;;39.30;55.20;;;;;;873909;160;26330;-74
2023/07/12 07:32:14;;;;;;;1.70;1.60;;;39.70;54.30;;;;;;874181;160;26393;-75
2023/07/12 07:34:42;;;;;;;1.70;1.60;;;40.20;53.40;;;;;;874442;160;26406;-75
2023/07/12 07:37:07;;;;;;;1.75;1.40;;;40.60;52.30;;;;;;874230;162;26844;-74
2023/07/12 07:39:34;;;;;;;2.05;1.70;;;41.00;51.40;;;;;;874011;160;26251;-74
2023/07/12 07:42:01;;;;;;;2.35;1.50;;;41.40;50.20;;;;;;874523;160;26326;-75
2023/07/12 07:44:27;;;;;;;2.92;1.62;;;41.80;49.40;;;;;;873621;160;26326;-75
2023/07/12 07:46:53;;;;;;;1.87;1.67;;;42.20;48.50;;;;;;874308;160;26448;-72
2023/07/12 07:49:20;;;;;;;1.72;1.62;;;42.60;47.70;;;;;;874401;160;26408;-72
2023/07/12 07:51:47;;;;;;;1.72;1.62;;;43.00;46.80;;;;;;874393;162;26291;-72
2023/07/12 07:54:13;;;;;;;1.50;1.40;;;43.30;45.50;;;;;;874521;162;26334;-72
2023/07/12 07:56:41;;;;;;;1.72;1.57;;;43.60;44.30;;;;;;874365;162;26466;-72
2023/07/12 07:59:06;;;;;;;1.30;1.20;;;43.80;44.00;;;;;;874767;160;26381;-72
2023/07/12 08:01:33;;;;;;;2.70;1.52;;;43.90;43.00;;;;;;873058;161;26432;-72
2023/07/12 08:04:00;;;;;;;2.45;1.35;;;44.10;42.80;;;;;;872373;160;26330;-72
2023/07/12 08:06:27;;;;;;;1.40;1.30;;;44.30;42.50;;;;;;872521;160;26472;-72
2023/07/12 08:08:53;;;;;;;1.50;1.40;;;44.40;42.00;;;;;;873799;161;26369;-72
2023/07/12 08:11:19;;;;;;;2.42;1.57;;;44.70;41.60;;;;;;873386;163;26397;-72
2023/07/12 08:13:46;;;;;;;1.75;1.65;;;45.00;41.40;;;;;;873592;163;26333;-72
2023/07/12 08:16:13;;;;;;;1.60;1.50;;;45.30;41.00;;;;;;873437;163;26278;-72
2023/07/12 08:18:39;;;;;;;1.85;1.40;;;45.60;41.10;;;;;;873713;163;26437;-72
2023/07/12 08:21:06;;;;;;;1.72;1.47;;;46.00;40.00;;;;;;873538;161;26322;-72
2023/07/12 08:23:32;;;;;;;1.90;1.45;;;46.40;39.20;;;;;;873203;161;26325;-74
2023/07/12 08:25:59;;;;;;;2.60;1.50;;;46.70;38.70;;;;;;872348;162;26323;-74
2023/07/12 08:28:25;;;;;;;1.65;1.22;;;47.00;37.90;;;;;;873677;161;26439;-74
2023/07/12 08:30:52;;;;;;;1.52;1.50;;;47.30;37.50;;;;;;873670;163;26456;-74
2023/07/12 08:33:19;;;;;;;1.47;1.30;;;47.60;36.90;;;;;;873722;162;26405;-74
2023/07/12 08:35:45;;;;;;;2.17;1.47;;;47.80;36.50;;;;;;873319;162;26315;-74
2023/07/12 08:38:12;;;;;;;2.47;1.37;;;48.10;35.90;;;;;;874072;161;26346;-74
2023/07/12 08:40:38;;;;;;;2.00;1.80;;;48.30;35.60;;;;;;873529;161;26366;-74
2023/07/12 08:43:05;;;;;;;1.85;1.42;;;48.50;35.00;;;;;;872869;163;26382;-74
2023/07/12 08:45:33;;;;;;;1.70;1.30;;;48.70;34.50;;;;;;872816;161;26441;-74
2023/07/12 08:48:01;;;;;;;1.40;1.30;;;48.90;34.20;;;;;;873461;161;26329;-75
2023/07/12 08:50:28;;;;;;;2.25;1.47;;;49.00;33.90;;;;;;872577;161;26484;-74
2023/07/12 08:52:54;;;;;;;1.87;1.40;;;49.20;33.30;;;;;;873566;161;26787;-74
2023/07/12 08:55:21;;;;;;;1.57;1.47;;;49.30;33.00;;;;;;873651;162;26346;-74
2023/07/12 08:57:53;;;;;;;1.60;1.50;;;49.40;32.70;;;;;;873682;163;26326;-74
2023/07/12 09:00:19;;;;;;;2.10;1.30;;;49.60;32.50;;;;;;872404;163;26397;-74
2023/07/12 09:02:46;;;;;;;1.60;1.50;;;49.70;32.10;;;;;;871734;163;26331;-74
2023/07/12 09:05:19;;;;;;;1.22;1.10;;;49.80;31.70;;;;;;872142;161;26334;-74
2023/07/12 09:07:47;;;;;;;2.15;1.60;;;49.90;31.30;;;;;;871289;163;26331;-75
2023/07/12 09:10:15;;;;;;;1.37;1.27;;;49.90;31.20;;;;;;871763;161;26477;-74
2023/07/12 09:12:41;;;;;;;1.67;1.45;;;49.90;30.20;;;;;;869681;163;26401;-74
2023/07/12 09:15:13;;;;;;;1.42;1.32;;;49.80;30.10;;;;;;871816;163;26467;-74
2023/07/12 09:17:43;;;;;;;1.57;1.42;;;49.70;30.00;;;;;;872159;163;26450;-74
2023/07/12 09:20:27;;;;;;;1.27;1.17;;;49.60;30.10;;;;;;871864;161;26426;-74
2023/07/12 09:22:54;;;;;;;1.30;1.20;;;49.60;30.10;;;;;;872151;163;26405;-74
2023/07/12 09:25:23;;;;;;;2.45;1.60;;;49.50;30.00;;;;;;871663;163;26332;-74
2023/07/12 09:27:50;;;;;;;1.47;1.37;;;49.50;29.80;;;;;;872107;163;26381;-74
2023/07/12 09:30:22;;;;;;;1.87;1.35;;;49.30;29.30;;;;;;872144;161;26374;-75
2023/07/12 09:32:48;;;;;;;2.70;1.47;;;49.10;28.90;;;;;;871764;163;26347;-75
2023/07/12 09:35:34;;;;;;;2.65;1.32;;;48.60;28.60;;;;;;871821;164;26420;-74
2023/07/12 09:38:01;;;;;;;1.52;1.22;;;48.10;28.80;;;;;;871760;161;26404;-74
2023/07/12 09:40:30;;;;;;;1.55;1.17;;;47.50;29.00;;;;;;871552;161;26453;-74
2023/07/12 09:42:59;;;;;;;3.02;1.42;;;47.10;29.20;;;;;;870207;164;26362;-74
2023/07/12 09:45:24;;;;;;;1.27;1.17;;;46.80;29.50;;;;;;870980;163;26427;-74
2023/07/12 09:48:05;;;;;;;2.17;1.20;;;46.70;29.70;;;;;;872010;161;26433;-75
2023/07/12 09:50:35;;;;;;;1.22;1.12;;;46.60;29.90;;;;;;871168;161;26346;-75
2023/07/12 09:53:13;;;;;;;2.20;1.40;;;46.60;29.80;;;;;;871156;161;26345;-75
2023/07/12 09:55:51;;;;;;;1.40;1.30;;;46.70;29.80;;;;;;867449;163;26267;-75
2023/07/12 09:58:21;;;;;;;1.10;1.05;;;46.70;29.70;;;;;;870830;161;26467;-74
2023/07/12 10:00:59;;;;;;;1.55;1.45;;;46.60;29.50;;;;;;871694;160;26539;-75
2023/07/12 10:03:41;;;;;;;1.47;1.35;;;46.40;29.40;;;;;;872971;160;26439;-78
2023/07/12 10:06:22;;;;;;;1.98;1.32;;;46.20;29.30;;;;;;872717;160;26449;-78
2023/07/12 10:08:52;;;;;;;2.55;1.35;;;46.00;29.30;;;;;;873705;160;26428;-78
2023/07/12 10:11:23;;;;;;;1.60;1.50;;;45.60;29.30;;;;;;873494;163;26373;-78
2023/07/12 10:13:48;;;;;;;1.82;1.72;;;45.30;29.40;;;;;;874032;163;26336;-78
2023/07/12 10:16:20;;;;;;;2.87;1.50;;;45.00;29.60;;;;;;874275;163;26371;-78
2023/07/12 10:18:48;;;;;;;1.62;1.52;;;44.70;29.70;;;;;;872253;160;26442;-78
2023/07/12 10:21:13;;;;;;;1.70;1.57;;;44.40;29.70;;;;;;874201;163;26373;-78
2023/07/12 10:23:40;;;;;;;1.65;1.42;;;44.00;29.70;;;;;;873571;160;26401;-78
2023/07/12 10:26:06;;;;;;;1.35;1.25;;;43.60;29.70;;;;;;873228;160;26397;-78
2023/07/12 10:28:54;;;;;;;1.70;1.60;;;43.20;29.80;;;;;;873588;160;26310;-78
2023/07/12 10:31:23;;;;;;;1.90;1.67;;;42.70;30.00;;;;;;872900;160;26438;-78
2023/07/12 10:33:50;;;;;;;2.92;1.85;;;42.20;30.40;;;;;;872949;161;26401;-78
2023/07/12 10:36:17;;;;;;;3.72;1.95;;;41.80;30.80;;;;;;872465;160;27454;-78
2023/07/12 10:38:43;;;;;;;1.77;1.67;;;41.30;31.20;;;;;;873066;160;26346;-78
2023/07/12 10:41:12;;;;;;;1.90;1.80;;;41.00;31.30;;;;;;873700;160;26456;-78
2023/07/12 10:43:39;;;;;;;2.35;1.62;;;40.60;31.50;;;;;;872397;160;26349;-78
2023/07/12 10:46:20;;;;;;;2.10;1.70;;;40.30;31.70;;;;;;872969;162;26391;-78
2023/07/12 10:48:50;;;;;;;2.60;1.60;;;40.00;32.10;;;;;;873538;160;26333;-78
2023/07/12 10:51:34;;;;;;;1.60;1.50;;;39.60;32.60;;;;;;874661;162;27449;-78
2023/07/12 10:54:00;;;;;;;2.15;1.95;;;39.30;32.70;;;;;;874151;160;26322;-78
2023/07/12 10:56:52;;;;;;;3.35;1.77;;;39.00;32.90;;;;;;874144;162;26385;-78
2023/07/12 10:59:31;;;;;;;1.90;1.80;;;38.80;33.30;;;;;;874170;160;27423;-78
2023/07/12 11:01:57;;;;;;;2.00;1.70;;;38.60;33.60;;;;;;873545;161;26515;-78
2023/07/12 11:04:29;;;;;;;1.90;1.60;;;38.50;33.60;;;;;;872971;163;27467;-78
2023/07/12 11:06:59;;;;;;;1.60;1.50;;;38.30;33.90;;;;;;874384;162;26275;-78
2023/07/12 11:09:26;;;;;;;1.60;1.50;;;38.10;34.00;;;;;;875082;160;27441;-78
2023/07/12 11:12:08;;;;;;;2.37;1.65;;;38.00;34.00;;;;;;872747;160;26364;-78
2023/07/12 11:14:43;;;;;;;1.40;1.30;;;37.90;34.20;;;;;;874584;162;27657;-78
2023/07/12 11:17:06;;;;;;;1.77;1.67;;;37.70;34.30;;;;;;874151;161;27600;-78
2023/07/12 11:19:39;;;;;;;4.15;1.57;;;37.60;34.50;;;;;;874373;163;26416;-78
2023/07/12 11:22:24;;;;;;;1.80;1.70;;;37.50;34.70;;;;;;874081;162;27425;-78
2023/07/12 11:24:52;;;;;;;3.80;1.57;;;37.30;34.80;;;;;;872559;160;27447;-78
2023/07/12 11:27:35;;;;;;;1.55;1.45;;;37.20;34.80;;;;;;873485;160;27420;-78
2023/07/12 11:30:14;;;;;;;1.35;1.22;;;37.00;34.70;;;;;;874590;160;27424;-78
2023/07/12 11:32:40;;;;;;;3.22;1.77;;;36.90;34.90;;;;;;873896;161;27895;-78
2023/07/12 11:35:09;;;;;;;5.47;1.70;;;36.70;35.10;;;;;;874075;160;27585;-78
2023/07/12 11:37:42;;;;;;;1.75;1.52;;;36.50;35.40;;;;;;873037;161;27435;-78
2023/07/12 11:40:17;;;;;;;2.30;1.47;;;36.30;35.60;;;;;;873502;160;27439;-78
2023/07/12 11:42:44;;;;;;;1.70;1.60;;;36.10;35.90;;;;;;873020;162;27555;-78
2023/07/12 11:45:12;;;;;;;2.37;1.52;;;36.10;36.30;;;;;;874922;160;27544;-78
2023/07/12 11:47:37;;;;;;;2.42;1.60;;;36.00;36.50;;;;;;874624;161;27425;-78
2023/07/12 11:50:04;;;;;;;3.40;1.37;;;36.00;36.50;;;;;;873468;160;27441;-78
2023/07/12 11:52:30;;;;;;;1.70;1.60;;;36.00;36.60;;;;;;874068;162;27356;-77
2023/07/12 11:54:57;;;;;;;1.55;1.45;;;36.00;36.60;;;;;;874146;163;27522;-77
2023/07/12 11:57:23;;;;;;;2.50;1.62;;;36.00;36.70;;;;;;874009;160;27490;-77
2023/07/12 11:59:50;;;;;;;1.67;1.52;;;35.90;36.70;;;;;;873092;160;27486;-78
2023/07/12 12:02:17;;;;;;;1.57;1.47;;;35.90;36.80;;;;;;873495;160;27459;-77
2023/07/12 12:04:47;;;;;;;2.02;1.37;;;35.80;36.90;;;;;;871664;161;27554;-78
2023/07/12 12:07:12;;;;;;;1.60;1.50;;;35.70;37.20;;;;;;872848;161;27448;-78
2023/07/12 12:09:39;;;;;;;2.00;1.60;;;35.60;37.50;;;;;;871274;161;27433;-77
2023/07/12 12:12:08;;;;;;;2.10;1.80;;;35.60;37.60;;;;;;871613;161;27542;-78
2023/07/12 12:14:41;;;;;;;1.50;1.40;;;35.50;37.70;;;;;;872239;163;27441;-77
2023/07/12 12:17:07;;;;;;;1.60;1.50;;;35.50;38.10;;;;;;871860;163;27556;-77
2023/07/12 12:19:34;;;;;;;2.00;1.67;;;35.50;38.30;;;;;;870382;161;27441;-77
2023/07/12 12:22:01;;;;;;;1.52;1.40;;;35.50;38.10;;;;;;871591;163;27431;-78
2023/07/12 12:24:27;;;;;;;1.55;1.45;;;35.60;37.50;;;;;;871216;162;27563;-77
2023/07/12 12:26:54;;;;;;;3.75;1.20;;;35.60;37.50;;;;;;870996;163;27535;-78
2023/07/12 12:29:20;;;;;;;1.62;1.52;;;35.70;37.20;;;;;;870766;162;27354;-78
2023/07/12 12:31:50;;;;;;;1.37;1.27;;;35.70;37.10;;;;;;869898;162;27586;-77
2023/07/12 12:34:17;;;;;;;1.32;1.00;;;35.70;36.80;;;;;;871318;162;27599;-78
2023/07/12 12:36:55;;;;;;;1.47;1.25;;;35.70;36.60;;;;;;871789;163;27451;-77
2023/07/12 12:39:22;;;;;;;1.27;1.00;;;35.70;36.70;;;;;;871520;161;27457;-77
2023/07/12 12:42:00;;;;;;;1.60;1.50;;;35.70;36.90;;;;;;871898;161;27379;-77
2023/07/12 12:44:27;;;;;;;1.15;1.05;;;35.70;36.80;;;;;;871605;161;27499;-77
2023/07/12 12:46:53;;;;;;;1.95;1.10;;;35.70;36.60;;;;;;871584;161;27417;-77
2023/07/12 12:49:29;;;;;;;1.62;1.20;;;35.60;36.40;;;;;;871156;162;27545;-77
2023/07/12 12:51:55;;;;;;;1.10;0.90;;;35.70;36.60;;;;;;870492;163;27526;-77